CPX242 Details

Departure: Huntsville International Airport (KHSV)
Arrival: Chicago/Rockford International Airport (KRFD)
Route: RQZ BNA J73 GUIDO JOT


Current Weather Information
KHSV 181553Z 02013G18KT 10SM FEW110 11/M04 A3040 RMK AO2 SLP295 T01061039
KRFD 181601Z 32005KT 10SM BKN015 03/M02 A3040 RMK AO2 T00281017